Time;durP1;ratioP1;P1;durP2;ratioP2;P2;SDS_P1;SDS_P2;PMS_P1;PMS_P2;Temp;Humidity;BMP_temperature;BMP_pressure;BME280_temperature;BME280_humidity;BME280_pressure;Samples;Min_cycle;Max_cycle;Signal;HPM_P1;HPM_P2
2023/01/21 00:00:36;;;;;;;2.42;2.33;;;-2.80;99.90;;;;;;5031477;28;20084;-72
2023/01/21 00:03:01;;;;;;;2.28;2.20;;;-2.90;99.90;;;;;;5031683;28;20029;-72
2023/01/21 00:05:27;;;;;;;1.85;1.85;;;-3.00;99.90;;;;;;5031564;28;20455;-70
2023/01/21 00:07:53;;;;;;;1.92;1.92;;;-3.00;99.90;;;;;;5031298;28;20026;-71
2023/01/21 00:10:18;;;;;;;3.55;3.38;;;-3.10;99.90;;;;;;5031416;28;20541;-72
2023/01/21 00:12:44;;;;;;;2.42;2.33;;;-3.10;99.90;;;;;;5031607;28;20543;-71
2023/01/21 00:15:09;;;;;;;2.15;2.13;;;-3.30;99.90;;;;;;5031723;28;20109;-71
2023/01/21 00:17:35;;;;;;;1.90;1.90;;;-3.40;99.90;;;;;;5013570;28;20082;-71
2023/01/21 00:20:04;;;;;;;17.90;16.35;;;-3.40;99.90;;;;;;5031558;28;20032;-72
2023/01/21 00:22:31;;;;;;;2.05;2.05;;;-3.40;99.90;;;;;;5031524;28;20032;-72
2023/01/21 00:24:56;;;;;;;2.17;2.17;;;-3.40;99.90;;;;;;5031513;28;20021;-71
2023/01/21 00:27:22;;;;;;;2.30;2.20;;;-3.30;99.90;;;;;;5031046;28;20103;-71
2023/01/21 00:29:48;;;;;;;1.88;1.88;;;-3.40;99.90;;;;;;5037134;28;20437;-71
2023/01/21 00:32:13;;;;;;;2.03;2.03;;;-3.50;99.90;;;;;;5008648;28;20033;-71
2023/01/21 00:34:39;;;;;;;1.83;1.83;;;-3.70;99.90;;;;;;5011605;28;20064;-71
2023/01/21 00:37:05;;;;;;;1.60;1.60;;;-3.60;99.90;;;;;;5022322;28;20079;-73
2023/01/21 00:39:30;;;;;;;1.92;1.92;;;-3.60;99.90;;;;;;5031284;28;20030;-73
2023/01/21 00:41:56;;;;;;;2.00;2.00;;;-3.60;99.90;;;;;;5031794;28;20493;-72
2023/01/21 00:44:22;;;;;;;1.70;1.70;;;-3.60;99.90;;;;;;5031190;28;20021;-72
2023/01/21 00:46:47;;;;;;;1.98;1.98;;;-3.60;99.90;;;;;;5013350;28;20450;-70
2023/01/21 00:49:13;;;;;;;1.60;1.60;;;-3.80;99.90;;;;;;4996943;28;20028;-71
2023/01/21 00:51:38;;;;;;;1.60;1.60;;;-3.90;99.90;;;;;;5013336;28;20057;-71
2023/01/21 00:54:04;;;;;;;1.90;1.90;;;-3.90;99.90;;;;;;5014375;28;20133;-71
2023/01/21 00:56:29;;;;;;;1.63;1.63;;;-4.00;99.90;;;;;;5015225;28;20081;-72
2023/01/21 00:58:55;;;;;;;2.17;2.13;;;-3.90;99.90;;;;;;5033525;28;20026;-70
2023/01/21 01:01:21;;;;;;;2.10;2.10;;;-3.90;99.90;;;;;;5035093;28;20506;-70
2023/01/21 01:03:48;;;;;;;2.92;2.83;;;-3.90;99.90;;;;;;5034773;28;20433;-71
2023/01/21 01:06:15;;;;;;;1.85;1.85;;;-4.00;99.90;;;;;;5035016;28;20538;-72
2023/01/21 01:08:42;;;;;;;1.98;1.98;;;-4.00;99.90;;;;;;5034316;28;20061;-72
2023/01/21 01:11:09;;;;;;;1.58;1.58;;;-3.90;99.90;;;;;;5034841;28;20051;-72
2023/01/21 01:13:35;;;;;;;1.70;1.70;;;-4.00;99.90;;;;;;5034542;28;20025;-73
2023/01/21 01:16:01;;;;;;;1.88;1.88;;;-3.90;99.90;;;;;;5034543;28;20021;-71
2023/01/21 01:18:29;;;;;;;4.32;3.97;;;-3.90;99.90;;;;;;5016561;28;20040;-73
2023/01/21 01:20:55;;;;;;;3.38;3.28;;;-4.00;99.90;;;;;;5016782;28;20505;-72
2023/01/21 01:23:20;;;;;;;1.77;1.77;;;-4.10;99.90;;;;;;5028571;28;20034;-72
2023/01/21 01:26:03;;;;;;;1.75;1.75;;;-4.10;99.90;;;;;;5014800;28;20040;-72
2023/01/21 01:28:29;;;;;;;1.60;1.60;;;-4.00;99.90;;;;;;4996499;28;20434;-73
2023/01/21 01:30:56;;;;;;;1.73;1.73;;;-4.00;99.90;;;;;;5040929;28;20110;-73
2023/01/21 01:33:22;;;;;;;1.90;1.90;;;-4.00;99.90;;;;;;5022984;28;20030;-71
2023/01/21 01:35:48;;;;;;;1.63;1.63;;;-4.10;99.90;;;;;;5033971;28;20028;-71
2023/01/21 01:38:15;;;;;;;2.25;2.15;;;-4.10;99.90;;;;;;5016349;28;20029;-72
2023/01/21 01:40:41;;;;;;;1.80;1.80;;;-4.10;99.90;;;;;;5016316;28;20025;-72
2023/01/21 01:43:23;;;;;;;1.50;1.50;;;-4.10;99.90;;;;;;5016435;28;20025;-72
2023/01/21 01:45:49;;;;;;;2.38;2.28;;;-4.10;99.90;;;;;;5034077;28;20040;-72
2023/01/21 01:48:21;;;;;;;1.42;1.42;;;-4.10;99.90;;;;;;5015701;28;20025;-71
2023/01/21 01:50:47;;;;;;;3.70;3.60;;;-4.10;99.90;;;;;;5034364;28;20021;-72
2023/01/21 01:53:17;;;;;;;1.40;1.40;;;-4.00;99.90;;;;;;5034158;28;20434;-72
2023/01/21 01:55:44;;;;;;;1.92;1.83;;;-4.10;99.90;;;;;;5034131;28;20422;-71
2023/01/21 01:58:13;;;;;;;1.65;1.65;;;-4.10;99.90;;;;;;5033663;28;20068;-71
2023/01/21 02:00:39;;;;;;;1.60;1.60;;;-4.00;99.90;;;;;;5033530;28;20030;-71
2023/01/21 02:05:50;;;;;;;2.03;2.00;;;-4.00;99.90;;;;;;5033419;28;20036;-74
2023/01/21 02:08:16;;;;;;;1.70;1.70;;;-4.30;99.90;;;;;;5033304;28;20034;-73
2023/01/21 02:10:42;;;;;;;1.52;1.52;;;-4.20;99.90;;;;;;5033598;28;20079;-73
2023/01/21 02:13:08;;;;;;;1.85;1.77;;;-4.00;99.90;;;;;;5015573;28;20025;-73
2023/01/21 02:15:47;;;;;;;1.45;1.45;;;-4.10;99.90;;;;;;5033406;28;20526;-73
2023/01/21 02:18:17;;;;;;;6.65;3.97;;;-3.90;99.90;;;;;;5033044;28;20026;-72
2023/01/21 02:21:08;;;;;;;2.90;2.75;;;-3.90;99.90;;;;;;5033440;28;20029;-73
2023/01/21 02:24:01;;;;;;;1.30;1.30;;;-3.80;99.90;;;;;;5015444;28;20079;-73
2023/01/21 02:27:05;;;;;;;7.72;3.05;;;-3.80;99.90;;;;;;5015354;28;20080;-72
2023/01/21 02:30:00;;;;;;;1.20;1.20;;;-3.90;99.90;;;;;;5037016;28;20083;-72
2023/01/21 02:32:57;;;;;;;2.22;2.13;;;-3.70;99.90;;;;;;5006756;28;20112;-72
2023/01/21 02:35:49;;;;;;;;;;;-3.70;99.90;;;;;;5014036;28;20483;-72
2023/01/21 02:38:14;;;;;;;5.07;4.78;;;-3.70;99.90;;;;;;4991657;28;19909;-73
2023/01/21 02:40:56;;;;;;;1.38;1.38;;;-3.70;99.90;;;;;;5013234;28;20026;-73
2023/01/21 02:43:52;;;;;;;1.48;1.48;;;-3.80;99.90;;;;;;5013085;28;20026;-73
2023/01/21 02:46:25;;;;;;;1.52;1.52;;;-3.80;99.90;;;;;;5013274;28;20030;-74
2023/01/21 02:49:03;;;;;;;1.40;1.40;;;-3.90;99.90;;;;;;5013032;28;20087;-74
2023/01/21 02:51:28;;;;;;;1.23;1.23;;;-3.90;99.90;;;;;;5013302;28;20476;-73
2023/01/21 02:53:54;;;;;;;1.83;1.83;;;-4.10;99.90;;;;;;5013225;28;20030;-73
2023/01/21 02:56:24;;;;;;;1.83;1.83;;;-4.00;99.90;;;;;;4995374;28;20022;-73
2023/01/21 02:59:01;;;;;;;1.55;1.55;;;-4.20;99.90;;;;;;5012612;28;20035;-72
2023/01/21 03:01:38;;;;;;;1.60;1.60;;;-4.10;99.90;;;;;;5012894;28;20037;-71
2023/01/21 03:04:11;;;;;;;1.67;1.67;;;-4.10;99.90;;;;;;5012774;28;20037;-72
2023/01/21 03:06:56;;;;;;;2.40;2.30;;;-4.00;99.90;;;;;;4995157;28;20021;-72
2023/01/21 03:09:23;;;;;;;1.35;1.35;;;-3.90;99.90;;;;;;5012854;28;20399;-72
2023/01/21 03:12:11;;;;;;;1.50;1.50;;;-4.00;99.90;;;;;;5012671;28;20022;-72
2023/01/21 03:17:40;;;;;;;1.95;1.88;;;-3.90;99.90;;;;;;5011688;28;20099;-72
2023/01/21 03:20:35;;;;;;;1.60;1.60;;;-3.80;99.90;;;;;;5012744;28;20030;-73
2023/01/21 03:23:05;;;;;;;2.47;2.38;;;-3.80;99.90;;;;;;5022842;28;20029;-73
2023/01/21 03:25:33;;;;;;;1.60;1.60;;;-3.80;99.90;;;;;;5029911;28;20487;-73
2023/01/21 03:28:03;;;;;;;2.17;2.08;;;-3.80;99.90;;;;;;5030648;28;20032;-73
2023/01/21 03:30:30;;;;;;;2.58;2.47;;;-3.80;99.90;;;;;;5037740;28;20482;-72
2023/01/21 03:32:57;;;;;;;2.40;2.30;;;-3.90;99.90;;;;;;5018508;28;20057;-73
2023/01/21 03:35:31;;;;;;;2.67;2.58;;;-3.80;99.90;;;;;;5028819;28;20037;-73
2023/01/21 03:38:23;;;;;;;1.73;1.73;;;-3.90;99.90;;;;;;5028944;28;20026;-73
2023/01/21 03:40:54;;;;;;;2.22;2.13;;;-3.90;99.90;;;;;;5024143;28;20090;-71
2023/01/21 03:43:20;;;;;;;1.63;1.63;;;-3.80;99.90;;;;;;5016048;28;20025;-73
2023/01/21 03:45:58;;;;;;;6.55;4.88;;;-3.80;99.90;;;;;;5012111;28;20396;-72
2023/01/21 03:48:34;;;;;;;7.25;5.35;;;-3.70;99.90;;;;;;5012220;28;20116;-72
2023/01/21 03:51:05;;;;;;;2.28;2.17;;;-3.60;99.90;;;;;;4995020;28;20022;-72
2023/01/21 03:53:31;;;;;;;1.50;1.50;;;-3.60;99.90;;;;;;5012520;28;20476;-72
2023/01/21 03:55:58;;;;;;;1.98;1.88;;;-3.60;99.90;;;;;;5012516;28;20058;-71
2023/01/21 03:58:24;;;;;;;1.40;1.40;;;-3.50;99.90;;;;;;5012276;28;20109;-72
2023/01/21 04:00:50;;;;;;;10.55;5.35;;;-3.60;99.90;;;;;;5012409;28;20053;-73
2023/01/21 04:03:15;;;;;;;1.42;1.42;;;-3.30;99.90;;;;;;5012119;28;20495;-73
2023/01/21 04:05:41;;;;;;;1.42;1.42;;;-3.50;99.90;;;;;;5012064;28;20029;-72
2023/01/21 04:08:06;;;;;;;1.42;1.42;;;-3.30;99.90;;;;;;5011621;28;20097;-73
2023/01/21 04:10:32;;;;;;;5.30;3.72;;;-3.30;99.90;;;;;;5012020;28;20092;-72
2023/01/21 04:12:57;;;;;;;2.10;2.00;;;-3.20;99.90;;;;;;5011772;28;20396;-72
2023/01/21 04:15:23;;;;;;;1.40;1.40;;;-3.30;99.90;;;;;;5012037;28;20052;-73
2023/01/21 04:17:48;;;;;;;1.80;1.80;;;-3.40;99.90;;;;;;5012278;28;20022;-73
2023/01/21 04:20:14;;;;;;;3.45;3.35;;;-3.30;99.90;;;;;;5011830;28;20038;-73
2023/01/21 04:22:39;;;;;;;2.35;2.25;;;-3.10;99.90;;;;;;5011798;28;20037;-72
2023/01/21 04:25:05;;;;;;;3.25;2.95;;;-3.10;99.90;;;;;;4994104;28;20026;-72
2023/01/21 04:27:31;;;;;;;1.77;1.77;;;-3.10;99.90;;;;;;5011332;28;20384;-72
2023/01/21 04:29:56;;;;;;;1.50;1.50;;;-3.00;99.90;;;;;;5028787;28;20056;-72
2023/01/21 04:32:22;;;;;;;1.95;1.95;;;-3.00;99.90;;;;;;5027740;28;20022;-72
2023/01/21 04:34:47;;;;;;;1.95;1.85;;;-2.90;99.90;;;;;;5015369;28;20044;-72
2023/01/21 04:37:13;;;;;;;2.05;2.05;;;-3.00;99.90;;;;;;5026971;28;20022;-72
2023/01/21 04:39:38;;;;;;;4.45;4.15;;;-2.90;99.90;;;;;;5035211;28;20021;-72
2023/01/21 04:42:04;;;;;;;2.58;2.45;;;-2.90;99.90;;;;;;5035169;28;20057;-71
2023/01/21 04:44:29;;;;;;;1.67;1.67;;;-2.80;99.90;;;;;;5035064;28;20137;-72
2023/01/21 04:46:55;;;;;;;1.55;1.55;;;-2.80;99.90;;;;;;5034885;28;20042;-72
2023/01/21 04:49:20;;;;;;;1.60;1.60;;;-2.80;99.90;;;;;;5034971;28;20026;-72
2023/01/21 04:51:46;;;;;;;2.95;2.75;;;-2.80;99.90;;;;;;5034978;28;20026;-72
2023/01/21 04:54:11;;;;;;;3.72;3.47;;;-2.80;99.90;;;;;;5034865;28;20025;-71
2023/01/21 04:56:37;;;;;;;6.07;5.75;;;-2.80;99.90;;;;;;5016978;28;20441;-71
2023/01/21 04:59:03;;;;;;;2.10;2.10;;;-2.80;99.90;;;;;;5034476;28;20503;-71
2023/01/21 05:01:29;;;;;;;2.10;2.10;;;-2.70;99.90;;;;;;5034746;28;20037;-71
2023/01/21 05:03:54;;;;;;;2.00;2.00;;;-2.80;99.90;;;;;;5036187;28;20522;-71
2023/01/21 05:06:20;;;;;;;2.28;2.22;;;-2.80;99.90;;;;;;5034689;28;20444;-71
2023/01/21 05:08:45;;;;;;;4.00;3.80;;;-2.80;99.90;;;;;;5034420;28;20109;-72
2023/01/21 05:11:13;;;;;;;1.80;1.80;;;-2.90;99.90;;;;;;5017150;28;20109;-72
2023/01/21 05:13:38;;;;;;;4.88;4.57;;;-2.90;99.90;;;;;;5016583;28;20025;-72
2023/01/21 05:16:07;;;;;;;2.42;2.33;;;-2.90;99.90;;;;;;5034275;28;20029;-71
2023/01/21 05:18:33;;;;;;;1.75;1.75;;;-2.90;99.90;;;;;;5015256;28;20030;-71
2023/01/21 05:20:58;;;;;;;3.10;2.67;;;-2.90;99.90;;;;;;5014394;28;20041;-72
2023/01/21 05:23:24;;;;;;;5.35;3.78;;;-2.90;99.90;;;;;;5012330;28;20069;-71
2023/01/21 05:25:49;;;;;;;2.70;2.58;;;-2.90;99.90;;;;;;5026724;28;20391;-71
2023/01/21 05:28:15;;;;;;;8.45;7.00;;;-2.90;99.90;;;;;;5033895;28;20483;-71
2023/01/21 05:30:40;;;;;;;3.70;3.50;;;-2.90;99.90;;;;;;5021320;28;20369;-71
2023/01/21 05:33:06;;;;;;;2.55;2.42;;;-2.90;99.90;;;;;;5014420;28;20032;-71
2023/01/21 05:35:33;;;;;;;2.35;2.25;;;-2.90;99.90;;;;;;5014332;28;20033;-71
2023/01/21 05:37:59;;;;;;;2.63;2.53;;;-2.90;99.90;;;;;;5032230;28;20033;-71
2023/01/21 05:40:24;;;;;;;2.50;2.40;;;-2.80;99.90;;;;;;5033035;28;20071;-71
2023/01/21 05:42:50;;;;;;;2.15;2.15;;;-2.80;99.90;;;;;;5033980;28;20099;-71
2023/01/21 05:45:16;;;;;;;2.92;2.83;;;-2.80;99.90;;;;;;5034164;28;20029;-71
2023/01/21 05:47:42;;;;;;;2.50;2.40;;;-2.90;99.90;;;;;;5015879;28;20036;-71
2023/01/21 05:50:09;;;;;;;2.88;2.67;;;-2.80;99.90;;;;;;5033815;28;20398;-71
2023/01/21 05:52:34;;;;;;;1.65;1.65;;;-2.80;99.90;;;;;;5033543;28;20040;-72
2023/01/21 05:55:00;;;;;;;3.33;3.13;;;-2.90;99.90;;;;;;5034003;28;20013;-71
2023/01/21 05:57:26;;;;;;;3.17;2.90;;;-3.00;99.90;;;;;;5033696;28;20441;-71
2023/01/21 05:59:51;;;;;;;4.57;4.15;;;-3.00;99.90;;;;;;5033726;28;20026;-71
2023/01/21 06:02:17;;;;;;;7.78;5.70;;;-3.00;99.90;;;;;;5033893;28;20030;-71
2023/01/21 06:04:42;;;;;;;8.25;6.35;;;-3.10;99.90;;;;;;5033527;28;20091;-73
2023/01/21 06:07:08;;;;;;;2.20;2.10;;;-3.10;99.90;;;;;;5015456;28;20060;-72
2023/01/21 06:09:34;;;;;;;3.17;2.90;;;-3.10;99.90;;;;;;5033542;28;20057;-71
2023/01/21 06:11:59;;;;;;;3.28;3.08;;;-3.10;99.90;;;;;;5033550;28;20018;-72
2023/01/21 06:14:25;;;;;;;4.85;3.72;;;-3.00;99.90;;;;;;5033514;28;20061;-72
2023/01/21 06:16:50;;;;;;;2.33;2.22;;;-3.10;99.90;;;;;;5033125;28;20061;-72
2023/01/21 06:19:16;;;;;;;2.05;2.05;;;-3.10;99.90;;;;;;5033245;28;20037;-72
2023/01/21 06:21:42;;;;;;;3.40;3.20;;;-3.10;99.90;;;;;;5033375;28;20025;-71
2023/01/21 06:24:08;;;;;;;3.17;3.08;;;-3.10;99.90;;;;;;5033181;28;20036;-72
2023/01/21 06:26:33;;;;;;;2.33;2.25;;;-3.10;99.90;;;;;;5033176;28;20032;-74
2023/01/21 06:28:59;;;;;;;2.60;2.50;;;-3.00;99.90;;;;;;5032727;28;20574;-71
2023/01/21 06:31:25;;;;;;;3.28;3.17;;;-2.90;99.90;;;;;;5040817;28;20431;-72
2023/01/21 06:33:51;;;;;;;5.25;4.80;;;-2.90;99.90;;;;;;5013270;28;20053;-72
2023/01/21 06:36:17;;;;;;;2.30;2.22;;;-2.90;99.90;;;;;;5017418;28;20423;-71
2023/01/21 06:38:42;;;;;;;3.75;3.55;;;-2.80;99.90;;;;;;5032858;28;20541;-72
2023/01/21 06:41:08;;;;;;;2.03;2.03;;;-2.80;99.90;;;;;;5032851;28;20034;-72
2023/01/21 06:43:33;;;;;;;3.38;3.28;;;-2.80;99.90;;;;;;5015105;28;20029;-71
2023/01/21 06:45:59;;;;;;;2.83;2.72;;;-2.80;99.90;;;;;;5015212;28;20025;-72
2023/01/21 06:48:25;;;;;;;2.40;2.30;;;-2.80;99.90;;;;;;5020652;28;20034;-71
2023/01/21 06:50:50;;;;;;;2.53;2.42;;;-2.80;99.90;;;;;;5012868;28;20476;-72
2023/01/21 06:53:16;;;;;;;4.85;4.40;;;-2.80;99.90;;;;;;5012778;28;20406;-71
2023/01/21 06:55:41;;;;;;;3.05;2.83;;;-2.80;99.90;;;;;;5012708;28;20028;-71
2023/01/21 06:58:07;;;;;;;7.53;5.05;;;-2.90;99.90;;;;;;5012397;28;20108;-74
2023/01/21 07:00:32;;;;;;;2.35;2.25;;;-2.90;99.90;;;;;;5012510;28;20022;-74
2023/01/21 07:02:59;;;;;;;2.63;2.53;;;-2.90;99.90;;;;;;5024075;28;20091;-72
2023/01/21 07:05:26;;;;;;;2.63;2.53;;;-2.80;99.90;;;;;;5032892;28;20386;-71
2023/01/21 07:07:55;;;;;;;2.67;2.58;;;-2.70;99.90;;;;;;5032081;28;20021;-71
2023/01/21 07:10:22;;;;;;;5.13;4.68;;;-2.70;99.90;;;;;;5032359;28;20021;-72
2023/01/21 07:12:47;;;;;;;2.83;2.72;;;-2.60;99.90;;;;;;5014679;28;20026;-72
2023/01/21 07:15:13;;;;;;;2.95;2.85;;;-2.50;99.90;;;;;;5032297;28;20025;-72
2023/01/21 07:17:38;;;;;;;2.83;2.72;;;-2.50;99.90;;;;;;5019688;28;20037;-72
2023/01/21 07:20:05;;;;;;;2.17;2.17;;;-2.50;99.90;;;;;;5012463;28;20484;-71
2023/01/21 07:22:34;;;;;;;3.13;3.03;;;-2.40;99.90;;;;;;5012604;28;20113;-71
2023/01/21 07:24:59;;;;;;;15.63;4.25;;;-2.40;99.90;;;;;;5018521;28;20056;-71
2023/01/21 07:27:25;;;;;;;2.53;2.42;;;-2.40;99.90;;;;;;5028149;28;20037;-72
2023/01/21 07:29:51;;;;;;;3.72;3.53;;;-2.40;99.90;;;;;;5013161;28;20484;-72
2023/01/21 07:32:16;;;;;;;2.40;2.30;;;-2.30;99.90;;;;;;5024152;28;20054;-72
2023/01/21 07:34:42;;;;;;;2.08;2.08;;;-2.30;99.90;;;;;;5009734;28;20021;-71
2023/01/21 07:37:07;;;;;;;2.63;2.53;;;-2.20;99.90;;;;;;5017705;28;20018;-71
2023/01/21 07:39:33;;;;;;;2.63;2.40;;;-2.10;99.90;;;;;;5024703;28;20061;-72
2023/01/21 07:41:59;;;;;;;2.03;2.03;;;-2.10;99.90;;;;;;5007165;28;20026;-72
2023/01/21 07:44:24;;;;;;;2.70;2.60;;;-2.00;99.90;;;;;;5000784;28;20448;-72
2023/01/21 07:46:50;;;;;;;2.05;2.05;;;-1.90;99.90;;;;;;5018946;28;20014;-72
2023/01/21 07:49:17;;;;;;;2.08;2.08;;;-1.90;99.90;;;;;;5025093;28;20104;-72
2023/01/21 07:51:46;;;;;;;6.53;4.45;;;-1.80;99.90;;;;;;5012030;28;20025;-72
2023/01/21 07:54:12;;;;;;;4.85;4.43;;;-1.80;99.90;;;;;;5000052;28;20029;-73
2023/01/21 07:56:38;;;;;;;4.22;3.15;;;-1.80;99.90;;;;;;5019209;28;20022;-73
2023/01/21 07:59:04;;;;;;;3.50;3.20;;;-1.70;99.90;;;;;;5024880;28;20060;-72
2023/01/21 08:01:31;;;;;;;3.05;2.95;;;-1.70;99.90;;;;;;5030008;28;20075;-73
2023/01/21 08:03:57;;;;;;;3.25;2.95;;;-1.70;99.90;;;;;;5004974;28;20478;-72
2023/01/21 08:06:23;;;;;;;6.82;6.07;;;-1.60;99.90;;;;;;5022481;28;20025;-72
2023/01/21 08:08:48;;;;;;;2.15;2.08;;;-1.60;99.90;;;;;;5011046;28;20660;-72
2023/01/21 08:11:14;;;;;;;2.08;2.08;;;-1.60;99.90;;;;;;4999858;28;20026;-72
2023/01/21 08:13:39;;;;;;;2.00;2.00;;;-1.50;99.90;;;;;;5009901;28;20049;-72
2023/01/21 08:16:05;;;;;;;2.45;2.35;;;-1.50;99.90;;;;;;5009938;28;20030;-72
2023/01/21 08:18:31;;;;;;;4.07;2.95;;;-1.50;99.90;;;;;;5015348;28;20519;-72
2023/01/21 08:20:57;;;;;;;3.10;2.90;;;-1.50;99.90;;;;;;5019609;28;20053;-72
2023/01/21 08:23:24;;;;;;;2.97;2.78;;;-1.50;99.90;;;;;;5024871;28;20030;-72
2023/01/21 08:25:50;;;;;;;4.03;3.67;;;-1.50;99.90;;;;;;5016914;28;20029;-72
2023/01/21 08:28:15;;;;;;;4.07;3.83;;;-1.40;99.90;;;;;;5015920;28;20025;-72
2023/01/21 08:30:41;;;;;;;1.58;1.58;;;-1.40;99.90;;;;;;5031171;28;20104;-72
2023/01/21 08:33:06;;;;;;;1.90;1.90;;;-1.40;99.90;;;;;;5018082;28;20033;-72
2023/01/21 08:35:32;;;;;;;4.70;4.25;;;-1.30;99.90;;;;;;5018768;28;20365;-72
2023/01/21 08:37:57;;;;;;;4.18;3.85;;;-1.40;99.90;;;;;;5024396;28;20545;-72
2023/01/21 08:40:25;;;;;;;1.63;1.63;;;-1.40;99.90;;;;;;5024048;28;20388;-72
2023/01/21 08:42:51;;;;;;;3.72;2.72;;;-1.30;99.90;;;;;;5018275;28;20072;-72
2023/01/21 08:45:17;;;;;;;1.75;1.75;;;-1.30;99.90;;;;;;5001052;28;20076;-72
2023/01/21 08:47:42;;;;;;;2.65;2.45;;;-1.30;99.90;;;;;;5024134;28;20030;-72
2023/01/21 08:50:08;;;;;;;2.47;2.38;;;-1.30;99.90;;;;;;5024550;28;20499;-72
2023/01/21 08:52:34;;;;;;;5.57;4.30;;;-1.30;99.90;;;;;;5007994;28;20171;-72
2023/01/21 08:54:59;;;;;;;7.85;4.60;;;-1.30;99.90;;;;;;5024338;28;20072;-72
2023/01/21 08:57:26;;;;;;;4.43;2.95;;;-1.40;99.90;;;;;;5026511;28;20037;-72
2023/01/21 08:59:52;;;;;;;3.67;3.45;;;-1.50;99.90;;;;;;5020115;28;20365;-72
2023/01/21 09:02:17;;;;;;;3.67;3.28;;;-1.50;99.90;;;;;;5005387;28;20045;-72
2023/01/21 09:04:43;;;;;;;13.15;3.88;;;-1.50;99.90;;;;;;5011433;28;20022;-72
2023/01/21 09:07:08;;;;;;;4.50;2.35;;;-1.50;99.90;;;;;;5029747;28;20104;-72
2023/01/21 09:09:34;;;;;;;1.95;1.85;;;-1.50;99.90;;;;;;5018612;28;20088;-72
2023/01/21 09:12:00;;;;;;;3.38;2.20;;;-1.60;99.90;;;;;;5024844;28;20030;-72
2023/01/21 09:14:26;;;;;;;7.05;4.97;;;-1.60;99.90;;;;;;5005687;28;20100;-72
2023/01/21 09:16:52;;;;;;;4.25;3.90;;;-1.70;99.90;;;;;;5020522;28;20025;-72
2023/01/21 09:19:17;;;;;;;4.32;3.05;;;-1.70;99.90;;;;;;5022808;28;20018;-72
2023/01/21 09:21:43;;;;;;;1.30;1.30;;;-1.70;99.90;;;;;;5010372;28;20052;-72
2023/01/21 09:24:08;;;;;;;1.13;1.13;;;-1.70;99.90;;;;;;5009661;28;20120;-72
2023/01/21 09:26:34;;;;;;;5.68;5.35;;;-1.70;99.90;;;;;;5021555;28;20069;-72
2023/01/21 09:29:00;;;;;;;18.75;3.63;;;-1.70;99.90;;;;;;5022523;28;20026;-72
2023/01/21 09:31:28;;;;;;;1.65;1.58;;;-1.70;99.90;;;;;;5020955;28;20021;-72
2023/01/21 09:33:58;;;;;;;2.08;1.92;;;-1.80;99.90;;;;;;5021849;28;20094;-71
2023/01/21 09:36:26;;;;;;;1.80;1.77;;;-1.80;99.90;;;;;;5021284;28;20081;-72
2023/01/21 09:38:52;;;;;;;2.35;2.15;;;-1.70;99.90;;;;;;5019886;28;20383;-71
2023/01/21 09:41:24;;;;;;;1.80;1.70;;;-1.80;99.90;;;;;;5021426;28;20030;-72
2023/01/21 09:44:04;;;;;;;4.22;2.47;;;-1.80;99.90;;;;;;5020347;28;20032;-72
2023/01/21 09:46:52;;;;;;;1.50;1.50;;;-1.80;99.90;;;;;;5023625;28;20033;-72
2023/01/21 09:49:26;;;;;;;4.00;2.90;;;-1.70;99.90;;;;;;5008804;28;20055;-72
2023/01/21 09:52:02;;;;;;;1.80;1.70;;;-1.70;99.90;;;;;;5020829;28;20026;-71
2023/01/21 09:54:32;;;;;;;1.00;1.00;;;-1.70;99.90;;;;;;5025428;28;20093;-72
2023/01/21 09:57:22;;;;;;;2.15;2.05;;;-1.70;99.90;;;;;;5027249;28;20513;-72
2023/01/21 09:59:54;;;;;;;2.08;1.95;;;-1.70;99.90;;;;;;5024509;28;20045;-72
2023/01/21 10:02:46;;;;;;;2.13;1.80;;;-1.70;99.90;;;;;;5018502;28;20088;-72
2023/01/21 10:05:24;;;;;;;2.20;2.10;;;-1.70;99.90;;;;;;5018484;28;20025;-72
2023/01/21 10:08:11;;;;;;;0.90;0.90;;;-1.70;99.90;;;;;;5002744;28;20106;-71
2023/01/21 10:11:04;;;;;;;6.78;6.40;;;-1.60;99.90;;;;;;5019435;28;20075;-72
2023/01/21 10:13:57;;;;;;;1.45;1.45;;;-1.50;99.90;;;;;;5018518;28;20497;-72
2023/01/21 10:17:14;;;;;;;3.13;1.60;;;-1.40;99.90;;;;;;5019292;28;20439;-72
2023/01/21 10:20:04;;;;;;;1.02;1.02;;;-1.40;99.90;;;;;;5002216;28;20038;-72
2023/01/21 10:22:30;;;;;;;1.52;1.42;;;-1.40;99.90;;;;;;5025606;28;20025;-72
2023/01/21 10:25:01;;;;;;;1.30;1.30;;;-1.40;99.90;;;;;;5028389;28;20025;-72
2023/01/21 10:27:28;;;;;;;1.98;1.88;;;-1.20;99.90;;;;;;5024982;28;20546;-71
2023/01/21 10:30:06;;;;;;;2.30;2.20;;;-1.40;99.90;;;;;;5019753;28;20021;-72
2023/01/21 10:32:33;;;;;;;3.67;1.80;;;-1.40;99.90;;;;;;5000837;28;20022;-72
2023/01/21 10:34:59;;;;;;;0.77;0.77;;;-1.30;99.90;;;;;;5024718;28;20037;-72
2023/01/21 10:37:44;;;;;;;1.35;1.35;;;-1.30;99.90;;;;;;5026292;28;20021;-72
2023/01/21 10:40:41;;;;;;;0.85;0.85;;;-1.30;99.90;;;;;;5017382;28;20392;-72
2023/01/21 10:43:50;;;;;;;0.63;0.63;;;-1.20;99.90;;;;;;5015283;28;20392;-72
2023/01/21 10:46:26;;;;;;;2.55;2.35;;;-1.10;99.90;;;;;;5004973;28;20018;-72
2023/01/21 10:49:19;;;;;;;1.13;1.13;;;-1.20;99.90;;;;;;5022886;28;20479;-72
2023/01/21 10:52:02;;;;;;;1.45;1.00;;;-1.20;99.90;;;;;;5023090;28;20026;-72
2023/01/21 10:54:46;;;;;;;3.25;1.33;;;-1.20;99.90;;;;;;5021593;28;20083;-72
2023/01/21 10:57:17;;;;;;;2.20;2.00;;;-1.10;99.90;;;;;;5028455;28;20014;-72
2023/01/21 10:59:43;;;;;;;0.60;0.60;;;-1.10;99.90;;;;;;5024408;28;20391;-72
2023/01/21 11:02:22;;;;;;;0.73;0.73;;;-1.10;99.90;;;;;;5019551;28;20104;-72
2023/01/21 11:04:49;;;;;;;1.90;1.80;;;-1.00;99.90;;;;;;5019539;28;20029;-72
2023/01/21 11:07:18;;;;;;;1.10;0.93;;;-0.90;99.90;;;;;;5007595;28;20034;-72
2023/01/21 11:09:46;;;;;;;1.88;1.77;;;-1.00;99.90;;;;;;5023927;28;20021;-72
2023/01/21 11:12:17;;;;;;;0.50;0.50;;;-1.10;99.90;;;;;;5020635;28;20118;-72
2023/01/21 11:15:08;;;;;;;0.90;0.90;;;-1.00;99.90;;;;;;5019276;28;20104;-72
2023/01/21 11:17:36;;;;;;;0.88;0.88;;;-1.00;99.90;;;;;;5014939;28;20037;-72
2023/01/21 11:20:14;;;;;;;1.23;1.23;;;-1.00;99.90;;;;;;5027181;28;20530;-72
2023/01/21 11:22:45;;;;;;;1.67;1.52;;;-0.90;99.90;;;;;;5024903;28;20219;-72
2023/01/21 11:25:33;;;;;;;3.80;2.92;;;-1.00;99.90;;;;;;5020162;28;20056;-72
2023/01/21 11:27:58;;;;;;;0.70;0.70;;;-1.00;99.90;;;;;;5017862;28;20379;-72
2023/01/21 11:30:37;;;;;;;0.70;0.70;;;-0.90;99.90;;;;;;5030401;28;20047;-72
2023/01/21 11:33:20;;;;;;;0.70;0.70;;;-0.80;99.90;;;;;;4993548;28;20034;-72
2023/01/21 11:35:46;;;;;;;2.17;1.58;;;-0.90;99.90;;;;;;5026163;28;20032;-72
2023/01/21 11:38:35;;;;;;;0.93;0.93;;;-0.80;99.90;;;;;;5023008;28;20030;-72
2023/01/21 11:41:05;;;;;;;0.70;0.70;;;-0.80;99.90;;;;;;5025840;28;20072;-72
2023/01/21 11:43:39;;;;;;;0.80;0.80;;;-0.80;99.90;;;;;;5006167;28;20029;-72
2023/01/21 11:46:30;;;;;;;3.40;1.45;;;-0.80;99.90;;;;;;5018553;28;20036;-72
2023/01/21 11:49:30;;;;;;;2.78;1.55;;;-0.70;99.90;;;;;;5018217;28;20033;-72
2023/01/21 11:52:15;;;;;;;1.48;1.30;;;-0.80;99.90;;;;;;5018796;28;20030;-72
2023/01/21 11:54:41;;;;;;;8.63;2.47;;;-0.80;99.90;;;;;;5018583;28;20476;-72
2023/01/21 11:57:25;;;;;;;1.63;1.60;;;-0.90;99.90;;;;;;5026323;28;20028;-72
2023/01/21 11:59:55;;;;;;;2.83;1.88;;;-0.90;99.90;;;;;;5026064;28;20031;-72
2023/01/21 12:02:39;;;;;;;0.82;0.82;;;-1.00;99.90;;;;;;5018608;28;20051;-72
2023/01/21 12:05:12;;;;;;;1.65;1.38;;;-1.00;99.90;;;;;;5018697;28;20121;-72
2023/01/21 12:07:40;;;;;;;1.25;1.10;;;-0.90;99.90;;;;;;5021877;28;20488;-72
2023/01/21 12:10:17;;;;;;;1.90;1.70;;;-0.90;99.90;;;;;;5025353;28;20030;-72
2023/01/21 12:12:42;;;;;;;1.08;1.08;;;-0.80;99.90;;;;;;5023715;28;20472;-72
2023/01/21 12:15:49;;;;;;;4.05;2.88;;;-1.00;99.90;;;;;;5018481;28;20109;-72
2023/01/21 12:18:48;;;;;;;0.52;0.52;;;-1.00;99.90;;;;;;5017749;28;20034;-72
2023/01/21 12:21:20;;;;;;;0.50;0.50;;;-1.00;99.90;;;;;;5018649;28;20037;-72
2023/01/21 12:24:07;;;;;;;0.60;0.60;;;-1.00;99.90;;;;;;5005208;28;20036;-72
2023/01/21 12:26:38;;;;;;;1.60;0.80;;;-0.90;99.90;;;;;;5025486;28;20026;-72
2023/01/21 12:29:12;;;;;;;2.53;2.33;;;-0.80;99.90;;;;;;5011795;28;20038;-72
2023/01/21 12:32:00;;;;;;;1.40;1.17;;;-0.70;99.90;;;;;;5019696;28;20647;-72
2023/01/21 12:34:49;;;;;;;3.60;1.83;;;-0.70;99.90;;;;;;5018413;28;20476;-73
2023/01/21 12:37:31;;;;;;;1.83;1.73;;;-0.80;99.90;;;;;;5018002;28;20400;-72
2023/01/21 12:40:02;;;;;;;1.30;1.25;;;-0.70;99.90;;;;;;5021973;28;20559;-72
2023/01/21 12:42:33;;;;;;;0.80;0.80;;;-0.80;99.90;;;;;;5006712;28;20116;-72
2023/01/21 12:45:16;;;;;;;0.60;0.60;;;-0.60;99.90;;;;;;5026932;28;20049;-72
2023/01/21 12:47:55;;;;;;;4.03;2.05;;;-0.60;99.90;;;;;;5011368;28;20026;-71
2023/01/21 12:50:23;;;;;;;2.10;1.98;;;-0.70;99.90;;;;;;5016591;28;20093;-72
2023/01/21 12:53:03;;;;;;;1.10;1.10;;;-0.70;99.90;;;;;;5026353;28;20026;-72
2023/01/21 12:55:57;;;;;;;1.20;1.20;;;-0.60;99.90;;;;;;5010991;28;20022;-72
2023/01/21 12:58:29;;;;;;;4.63;2.58;;;-0.50;99.90;;;;;;5028364;28;20029;-72
2023/01/21 13:00:58;;;;;;;0.75;0.75;;;-0.70;99.90;;;;;;5015332;28;20068;-72
2023/01/21 13:03:39;;;;;;;0.60;0.60;;;-0.60;99.90;;;;;;5016522;28;20029;-72
2023/01/21 13:06:20;;;;;;;8.38;2.20;;;-0.60;99.90;;;;;;5022443;28;20109;-73
2023/01/21 13:08:54;;;;;;;0.60;0.60;;;-0.50;99.90;;;;;;5020653;28;20033;-71
2023/01/21 13:11:29;;;;;;;0.60;0.60;;;-0.60;99.90;;;;;;5021399;28;20026;-72